Time;durP1;ratioP1;P1;durP2;ratioP2;P2;SDS_P1;SDS_P2;PMS_P1;PMS_P2;Temp;Humidity;BMP_temperature;BMP_pressure;BME280_temperature;BME280_humidity;BME280_pressure;Samples;Min_cycle;Max_cycle;Signal;HPM_P1;HPM_P2
2022/06/24 00:01:59;;;;;;;;;;;;;;;13.80;74.73;100672.66;84805;1324;22575;-71
2022/06/24 00:04:03;;;;;;;;;;;;;;;13.74;74.74;100667.13;84791;1326;22705;-71
2022/06/24 00:06:14;;;;;;;;;;;;;;;13.70;74.75;100670.50;84779;1327;22667;-71
2022/06/24 00:08:17;;;;;;;;;;;;;;;13.64;74.85;100671.45;84808;1326;23962;-70
2022/06/24 00:10:21;;;;;;;;;;;;;;;13.61;75.11;100670.90;84775;1326;22569;-71
2022/06/24 00:12:25;;;;;;;;;;;;;;;13.58;75.21;100669.80;84770;1326;25306;-72
2022/06/24 00:14:29;;;;;;;;;;;;;;;13.56;75.37;100667.77;84741;1327;22741;-71
2022/06/24 00:16:32;;;;;;;;;;;;;;;13.55;75.38;100668.38;84786;1326;24312;-72
2022/06/24 00:18:35;;;;;;;;;;;;;;;13.55;75.37;100673.29;84778;1326;22761;-72
2022/06/24 00:20:42;;;;;;;;;;;;;;;13.54;75.41;100669.98;84770;1327;22699;-72
2022/06/24 00:22:46;;;;;;;;;;;;;;;13.53;75.58;100672.81;84755;1326;22600;-72
2022/06/24 00:24:50;;;;;;;;;;;;;;;13.54;75.67;100679.46;84774;1326;22574;-72
2022/06/24 00:26:53;;;;;;;;;;;;;;;13.54;75.68;100679.65;84707;1326;25245;-71
2022/06/24 00:29:01;;;;;;;;;;;;;;;13.55;75.88;100679.95;84704;1326;22597;-72
2022/06/24 00:31:04;;;;;;;;;;;;;;;13.55;75.65;100679.95;84719;1326;22578;-72
2022/06/24 00:33:12;;;;;;;;;;;;;;;13.52;75.79;100681.66;84729;1326;22565;-72
2022/06/24 00:35:16;;;;;;;;;;;;;;;13.48;75.51;100678.34;84734;1324;22960;-71
2022/06/24 00:37:27;;;;;;;;;;;;;;;13.43;75.60;100679.59;84734;1324;25287;-70
2022/06/24 00:39:34;;;;;;;;;;;;;;;13.39;75.72;100680.44;84722;1326;22595;-72
2022/06/24 00:41:37;;;;;;;;;;;;;;;13.36;75.79;100680.98;84773;1329;22901;-72
2022/06/24 00:43:41;;;;;;;;;;;;;;;13.32;75.80;100681.48;84798;1326;23917;-71
2022/06/24 00:45:46;;;;;;;;;;;;;;;13.27;75.72;100679.77;84749;1326;23032;-71
2022/06/24 00:47:49;;;;;;;;;;;;;;;13.23;75.75;100676.81;84726;1324;22611;-71
2022/06/24 00:49:53;;;;;;;;;;;;;;;13.18;75.74;100676.46;84730;1326;22549;-71
2022/06/24 00:51:56;;;;;;;;;;;;;;;13.13;75.89;100676.14;84725;1326;23833;-70
2022/06/24 00:54:00;;;;;;;;;;;;;;;13.07;76.01;100675.70;84707;1326;22582;-71
2022/06/24 00:56:04;;;;;;;;;;;;;;;13.03;76.07;100675.73;84725;1326;23838;-72
2022/06/24 00:58:12;;;;;;;;;;;;;;;12.98;76.10;100675.95;84729;1326;22581;-72
2022/06/24 01:00:18;;;;;;;;;;;;;;;12.94;76.18;100680.13;84730;1326;24354;-72
2022/06/24 01:02:21;;;;;;;;;;;;;;;12.90;76.41;100674.67;84747;1325;24209;-71
2022/06/24 01:04:31;;;;;;;;;;;;;;;12.90;76.42;100672.61;84782;1326;24431;-72
2022/06/24 01:06:35;;;;;;;;;;;;;;;12.89;76.55;100676.84;84724;1326;22619;-71
2022/06/24 01:08:38;;;;;;;;;;;;;;;12.88;76.71;100674.92;84722;1326;25258;-71
2022/06/24 01:10:42;;;;;;;;;;;;;;;12.89;76.73;100674.20;84719;1323;22663;-71
2022/06/24 01:12:45;;;;;;;;;;;;;;;12.89;76.73;100678.92;84709;1326;23974;-71
2022/06/24 01:14:49;;;;;;;;;;;;;;;12.90;76.77;100681.00;84781;1328;22586;-72
2022/06/24 01:16:52;;;;;;;;;;;;;;;12.91;76.86;100678.35;84771;1327;23382;-72
2022/06/24 01:18:58;;;;;;;;;;;;;;;12.92;76.88;100680.92;84807;1326;22531;-72
2022/06/24 01:21:01;;;;;;;;;;;;;;;12.94;76.98;100681.73;84777;1329;22543;-72
2022/06/24 01:23:05;;;;;;;;;;;;;;;12.94;76.92;100677.17;84717;1328;24305;-71
2022/06/24 01:25:09;;;;;;;;;;;;;;;12.93;76.80;100675.26;84777;1329;24252;-71
2022/06/24 01:27:12;;;;;;;;;;;;;;;12.91;76.82;100671.66;84789;1326;22564;-71
2022/06/24 01:29:16;;;;;;;;;;;;;;;12.87;76.75;100674.11;84773;1327;25425;-71
2022/06/24 01:31:19;;;;;;;;;;;;;;;12.82;76.70;100675.23;84805;1327;22574;-76
2022/06/24 01:33:22;;;;;;;;;;;;;;;12.77;76.66;100670.36;84767;1324;22613;-70
2022/06/24 01:35:26;;;;;;;;;;;;;;;12.72;76.77;100671.42;84731;1329;22593;-71
2022/06/24 01:37:29;;;;;;;;;;;;;;;12.68;76.73;100668.29;84730;1326;22936;-72
2022/06/24 01:39:32;;;;;;;;;;;;;;;12.63;76.88;100672.16;84718;1323;24268;-71
2022/06/24 01:41:36;;;;;;;;;;;;;;;12.58;76.88;100670.81;84719;1330;22603;-71
2022/06/24 01:43:39;;;;;;;;;;;;;;;12.54;77.03;100665.91;84772;1329;22675;-71
2022/06/24 01:45:42;;;;;;;;;;;;;;;12.49;76.97;100668.20;84784;1326;25364;-71
2022/06/24 01:47:46;;;;;;;;;;;;;;;12.44;77.12;100671.02;84776;1326;22608;-71
2022/06/24 01:49:49;;;;;;;;;;;;;;;12.40;77.07;100670.48;84775;1325;24465;-72
2022/06/24 01:51:53;;;;;;;;;;;;;;;12.37;77.19;100670.62;84785;1326;22716;-72
2022/06/24 01:53:56;;;;;;;;;;;;;;;12.34;77.38;100669.16;84777;1326;22847;-71
2022/06/24 01:56:00;;;;;;;;;;;;;;;12.33;77.64;100667.63;84779;1326;23917;-71
2022/06/24 01:58:04;;;;;;;;;;;;;;;12.32;77.67;100672.38;84781;1328;22815;-71
2022/06/24 02:00:10;;;;;;;;;;;;;;;12.33;77.75;100671.27;84782;1324;22574;-72
2022/06/24 02:02:13;;;;;;;;;;;;;;;12.34;77.97;100673.55;84762;1327;22555;-71
2022/06/24 02:04:16;;;;;;;;;;;;;;;12.33;78.16;100673.05;84768;1326;22710;-71
2022/06/24 02:06:20;;;;;;;;;;;;;;;12.35;78.11;100675.06;84780;1326;23792;-72
2022/06/24 02:08:23;;;;;;;;;;;;;;;12.36;78.12;100676.95;84768;1322;22584;-72
2022/06/24 02:15:10;;;;;;;;;;;;;;;12.37;77.87;100680.76;84727;1324;22618;-71
2022/06/24 02:17:14;;;;;;;;;;;;;;;12.35;77.88;100680.64;84724;1325;22597;-71
2022/06/24 02:19:17;;;;;;;;;;;;;;;12.35;77.90;100680.12;84736;1329;23962;-72
2022/06/24 02:21:22;;;;;;;;;;;;;;;12.32;77.70;100678.84;84709;1326;23963;-71
2022/06/24 02:23:25;;;;;;;;;;;;;;;12.29;77.83;100677.37;84737;1327;22622;-72
2022/06/24 02:25:28;;;;;;;;;;;;;;;12.26;77.91;100679.63;84718;1326;24183;-72
2022/06/24 02:27:31;;;;;;;;;;;;;;;12.21;77.84;100678.08;84697;1326;22629;-71
2022/06/24 02:29:35;;;;;;;;;;;;;;;12.17;77.91;100681.90;84723;1324;22594;-71
2022/06/24 02:31:39;;;;;;;;;;;;;;;12.16;78.03;100681.96;84717;1326;22830;-71
2022/06/24 02:33:42;;;;;;;;;;;;;;;12.12;78.06;100682.08;84711;1326;23894;-72
2022/06/24 02:35:45;;;;;;;;;;;;;;;12.09;78.09;100681.85;84716;1326;22589;-70
2022/06/24 02:37:48;;;;;;;;;;;;;;;12.06;78.08;100681.64;84708;1323;22622;-71
2022/06/24 02:39:52;;;;;;;;;;;;;;;12.03;78.18;100685.42;84712;1330;24094;-71
2022/06/24 02:41:55;;;;;;;;;;;;;;;12.02;78.47;100683.20;84722;1327;22579;-71
2022/06/24 02:43:58;;;;;;;;;;;;;;;12.01;78.68;100690.07;84722;1328;23396;-72
2022/06/24 02:46:03;;;;;;;;;;;;;;;12.00;78.74;100685.92;84728;1326;22564;-72
2022/06/24 02:48:06;;;;;;;;;;;;;;;12.01;79.04;100688.31;84761;1326;23777;-72
2022/06/24 02:50:10;;;;;;;;;;;;;;;12.01;79.02;100691.10;84735;1326;22566;-71
2022/06/24 02:52:13;;;;;;;;;;;;;;;12.02;79.20;100690.02;84729;1325;24232;-71
2022/06/24 02:54:16;;;;;;;;;;;;;;;12.06;79.26;100693.20;84725;1326;22584;-72
2022/06/24 02:56:20;;;;;;;;;;;;;;;12.09;79.40;100696.04;84741;1326;22578;-71
2022/06/24 02:58:23;;;;;;;;;;;;;;;12.13;79.47;100697.63;84716;1323;22644;-72
2022/06/24 03:00:26;;;;;;;;;;;;;;;12.21;79.76;100694.70;84716;1326;22598;-72
2022/06/24 03:02:30;;;;;;;;;;;;;;;12.26;79.73;100695.55;84736;1327;25433;-72
2022/06/24 03:04:33;;;;;;;;;;;;;;;12.31;79.59;100698.15;84713;1326;22598;-72
2022/06/24 03:06:36;;;;;;;;;;;;;;;12.36;79.68;100697.59;84730;1326;24306;-71
2022/06/24 03:08:40;;;;;;;;;;;;;;;12.45;79.87;100697.77;84732;1325;24422;-71
2022/06/24 03:10:43;;;;;;;;;;;;;;;12.51;79.90;100695.96;84709;1328;22816;-70
2022/06/24 03:12:46;;;;;;;;;;;;;;;12.58;79.86;100696.36;84731;1326;22604;-71
2022/06/24 03:14:50;;;;;;;;;;;;;;;12.64;79.77;100696.27;84734;1328;22555;-71
2022/06/24 03:16:53;;;;;;;;;;;;;;;12.70;79.78;100700.06;84716;1326;22581;-71
2022/06/24 03:18:56;;;;;;;;;;;;;;;12.74;79.81;100698.48;84707;1326;22777;-71
2022/06/24 03:21:00;;;;;;;;;;;;;;;12.78;79.81;100697.99;84748;1326;22521;-71
2022/06/24 03:23:03;;;;;;;;;;;;;;;12.82;79.75;100699.55;84721;1326;22765;-70
2022/06/24 03:25:07;;;;;;;;;;;;;;;12.86;79.73;100696.73;84764;1326;22568;-71
2022/06/24 03:27:11;;;;;;;;;;;;;;;12.91;79.82;100698.47;84762;1326;22559;-71
2022/06/24 03:29:14;;;;;;;;;;;;;;;13.04;80.07;100699.67;84726;1326;22586;-71
2022/06/24 03:31:17;;;;;;;;;;;;;;;13.33;80.57;100697.74;84738;1327;23976;-71
2022/06/24 03:33:20;;;;;;;;;;;;;;;13.98;81.49;100693.69;84726;1326;22602;-71
2022/06/24 03:35:24;;;;;;;;;;;;;;;14.95;81.27;100694.98;84751;1328;24255;-72
2022/06/24 03:37:27;;;;;;;;;;;;;;;15.98;80.25;100694.75;84727;1327;22538;-70
2022/06/24 03:39:31;;;;;;;;;;;;;;;17.00;78.61;100689.14;84729;1323;22754;-71
2022/06/24 03:41:34;;;;;;;;;;;;;;;18.01;76.56;100687.85;84765;1324;22574;-72
2022/06/24 03:43:38;;;;;;;;;;;;;;;19.00;74.34;100689.29;84728;1330;22709;-71
2022/06/24 03:45:41;;;;;;;;;;;;;;;19.82;71.55;100686.23;84767;1326;22746;-71
2022/06/24 03:47:44;;;;;;;;;;;;;;;20.59;69.51;100688.38;84727;1330;23992;-70
2022/06/24 03:49:47;;;;;;;;;;;;;;;21.42;67.00;100684.41;84686;1324;22610;-71
2022/06/24 03:51:51;;;;;;;;;;;;;;;22.12;64.59;100685.55;84783;1326;23167;-71
2022/06/24 03:53:54;;;;;;;;;;;;;;;22.79;62.21;100683.26;84751;1324;25090;-71
2022/06/24 03:55:57;;;;;;;;;;;;;;;23.46;60.53;100683.73;84726;1326;24310;-71
2022/06/24 03:58:01;;;;;;;;;;;;;;;24.11;58.32;100683.16;84557;1330;229257;-71
2022/06/24 04:00:07;;;;;;;;;;;;;;;24.66;56.58;100689.09;84733;1326;23861;-71
2022/06/24 04:02:10;;;;;;;;;;;;;;;25.20;54.43;100684.41;84762;1325;22710;-71
2022/06/24 04:04:14;;;;;;;;;;;;;;;25.67;52.82;100685.45;84740;1327;22534;-71
2022/06/24 04:06:17;;;;;;;;;;;;;;;26.07;51.08;100686.89;84721;1329;24241;-71
2022/06/24 04:08:21;;;;;;;;;;;;;;;26.42;49.69;100685.95;84747;1323;24168;-71
2022/06/24 04:10:25;;;;;;;;;;;;;;;26.81;48.37;100692.48;84686;1330;22732;-71
2022/06/24 04:12:29;;;;;;;;;;;;;;;27.20;47.18;100690.72;84752;1326;23933;-71
2022/06/24 04:16:53;;;;;;;;;;;;;;;28.08;45.02;100689.60;84743;1326;22614;-71
2022/06/24 04:18:57;;;;;;;;;;;;;;;28.51;44.07;100693.64;84736;1326;22550;-71
2022/06/24 04:21:00;;;;;;;;;;;;;;;28.89;43.48;100699.13;84724;1327;22771;-69
2022/06/24 04:23:03;;;;;;;;;;;;;;;29.27;42.36;100699.53;84718;1326;22603;-70
2022/06/24 04:25:08;;;;;;;;;;;;;;;29.62;41.59;100699.92;84720;1326;22583;-71
2022/06/24 04:27:12;;;;;;;;;;;;;;;30.04;40.98;100698.61;84715;1326;22553;-71
2022/06/24 04:29:15;;;;;;;;;;;;;;;30.45;39.95;100693.98;84711;1326;22563;-71
2022/06/24 04:31:18;;;;;;;;;;;;;;;30.75;39.13;100696.08;84704;1325;22577;-71
2022/06/24 04:33:23;;;;;;;;;;;;;;;30.93;38.64;100697.08;84721;1330;22664;-71
2022/06/24 04:35:26;;;;;;;;;;;;;;;31.11;38.42;100694.66;84715;1326;23841;-71
2022/06/24 04:37:30;;;;;;;;;;;;;;;31.29;37.84;100694.70;84724;1328;22597;-71
2022/06/24 04:39:33;;;;;;;;;;;;;;;31.59;37.32;100694.10;84714;1326;24092;-71
2022/06/24 04:41:37;;;;;;;;;;;;;;;31.63;36.86;100696.27;84718;1324;22565;-71
2022/06/24 04:43:40;;;;;;;;;;;;;;;31.43;37.13;100694.45;84735;1327;22574;-71
2022/06/24 04:45:44;;;;;;;;;;;;;;;30.94;37.62;100698.46;84721;1325;22629;-71
2022/06/24 04:47:48;;;;;;;;;;;;;;;30.81;37.61;100696.02;84731;1327;23917;-71
2022/06/24 04:49:51;;;;;;;;;;;;;;;30.99;37.47;100694.66;84743;1326;24320;-71
2022/06/24 04:51:54;;;;;;;;;;;;;;;31.43;36.92;100693.92;84722;1326;22862;-71
2022/06/24 04:53:58;;;;;;;;;;;;;;;31.75;35.94;100693.74;84739;1326;22614;-71
2022/06/24 04:56:01;;;;;;;;;;;;;;;32.08;35.62;100691.66;84727;1326;24463;-71
2022/06/24 04:58:05;;;;;;;;;;;;;;;32.50;34.60;100693.09;84727;1328;22578;-71
2022/06/24 05:00:10;;;;;;;;;;;;;;;32.90;34.54;100694.38;84772;1328;22890;-71
2022/06/24 05:02:14;;;;;;;;;;;;;;;33.28;34.02;100695.41;84757;1327;25312;-71
2022/06/24 05:04:17;;;;;;;;;;;;;;;33.61;31.09;100694.02;84741;1326;22524;-71
2022/06/24 05:06:20;;;;;;;;;;;;;;;33.85;31.21;100696.85;84752;1327;22871;-71
2022/06/24 05:08:23;;;;;;;;;;;;;;;34.06;30.50;100693.14;84736;1326;22681;-72
2022/06/24 05:10:27;;;;;;;;;;;;;;;34.34;30.38;100691.04;84720;1326;22586;-71
2022/06/24 05:12:30;;;;;;;;;;;;;;;34.80;29.19;100693.02;84726;1326;25430;-71
2022/06/24 05:14:33;;;;;;;;;;;;;;;35.04;28.46;100691.17;84740;1326;22772;-71
2022/06/24 05:16:37;;;;;;;;;;;;;;;35.21;27.00;100688.30;84720;1325;22573;-71
2022/06/24 05:18:40;;;;;;;;;;;;;;;35.46;27.02;100686.79;84707;1329;22541;-71
2022/06/24 05:20:43;;;;;;;;;;;;;;;35.74;26.48;100687.66;84748;1326;24682;-71
2022/06/24 05:22:46;;;;;;;;;;;;;;;36.07;25.47;100683.19;84731;1327;22588;-71
2022/06/24 05:24:50;;;;;;;;;;;;;;;36.18;24.32;100684.96;84778;1327;25415;-71
2022/06/24 05:26:53;;;;;;;;;;;;;;;36.37;24.61;100690.09;84719;1324;24244;-71
2022/06/24 05:28:56;;;;;;;;;;;;;;;36.67;24.30;100690.17;84756;1326;22704;-71
2022/06/24 05:31:00;;;;;;;;;;;;;;;36.89;23.83;100690.48;84718;1326;22573;-71
2022/06/24 05:33:03;;;;;;;;;;;;;;;37.11;23.32;100688.01;84707;1330;22588;-71
2022/06/24 05:35:07;;;;;;;;;;;;;;;37.28;23.09;100690.02;84713;1327;22611;-71
2022/06/24 05:37:11;;;;;;;;;;;;;;;37.54;22.84;100688.00;84728;1326;22848;-71
2022/06/24 05:39:14;;;;;;;;;;;;;;;37.70;22.47;100690.73;84719;1328;22856;-70
2022/06/24 05:41:17;;;;;;;;;;;;;;;37.87;22.40;100692.61;84708;1326;22553;-71
2022/06/24 05:43:21;;;;;;;;;;;;;;;38.20;21.70;100693.43;84741;1325;22574;-71
2022/06/24 05:45:24;;;;;;;;;;;;;;;38.45;21.20;100689.80;84704;1326;22595;-71
2022/06/24 05:47:27;;;;;;;;;;;;;;;38.58;21.31;100689.84;84714;1328;22815;-71
2022/06/24 05:49:31;;;;;;;;;;;;;;;38.59;20.61;100690.20;84729;1327;22607;-71
2022/06/24 05:51:36;;;;;;;;;;;;;;;38.55;20.23;100691.73;84727;1326;22521;-72
2022/06/24 05:56:03;;;;;;;;;;;;;;;38.67;20.79;100691.55;84703;1330;23921;-72
2022/06/24 05:58:06;;;;;;;;;;;;;;;38.82;20.19;100695.13;84792;1326;22584;-73
2022/06/24 06:00:11;;;;;;;;;;;;;;;38.87;20.45;100691.15;84811;1326;22855;-72
2022/06/24 06:02:15;;;;;;;;;;;;;;;38.95;19.94;100690.33;84756;1326;22584;-72
2022/06/24 06:04:18;;;;;;;;;;;;;;;39.03;19.95;100690.52;84796;1326;24208;-72
2022/06/24 06:06:24;;;;;;;;;;;;;;;39.20;19.73;100690.05;84801;1326;22730;-72
2022/06/24 06:08:28;;;;;;;;;;;;;;;39.22;19.05;100692.95;84646;1328;25288;-72
2022/06/24 06:10:31;;;;;;;;;;;;;;;39.32;18.78;100689.35;84720;1329;22687;-73
2022/06/24 06:12:35;;;;;;;;;;;;;;;39.54;19.33;100693.17;84725;1326;22697;-72
2022/06/24 06:14:39;;;;;;;;;;;;;;;39.83;18.84;100690.65;84718;1328;22711;-72
2022/06/24 06:16:47;;;;;;;;;;;;;;;39.95;18.54;100694.68;84713;1325;22534;-72
2022/06/24 06:18:50;;;;;;;;;;;;;;;40.02;18.65;100693.02;84738;1326;23985;-72
2022/06/24 06:20:53;;;;;;;;;;;;;;;40.14;18.24;100698.85;84715;1326;24232;-72
2022/06/24 06:22:57;;;;;;;;;;;;;;;40.14;18.18;100691.80;84711;1327;22698;-72
2022/06/24 06:25:00;;;;;;;;;;;;;;;40.29;17.93;100688.27;84727;1327;23924;-72
2022/06/24 06:27:05;;;;;;;;;;;;;;;40.41;17.83;100688.81;84722;1327;24375;-74
2022/06/24 06:29:08;;;;;;;;;;;;;;;40.45;17.86;100692.05;84754;1327;22818;-72
2022/06/24 06:31:12;;;;;;;;;;;;;;;40.43;18.00;100689.69;84701;1326;22687;-72
2022/06/24 06:33:15;;;;;;;;;;;;;;;40.62;18.29;100692.37;84710;1326;22569;-72
2022/06/24 06:35:18;;;;;;;;;;;;;;;40.69;17.98;100691.61;84728;1326;22599;-72
2022/06/24 06:37:22;;;;;;;;;;;;;;;40.59;17.94;100690.73;84712;1326;22667;-72
2022/06/24 06:39:25;;;;;;;;;;;;;;;40.59;17.60;100688.70;84733;1329;22531;-72
2022/06/24 06:41:29;;;;;;;;;;;;;;;40.72;18.42;100689.13;84739;1328;25430;-72
2022/06/24 06:43:32;;;;;;;;;;;;;;;41.01;17.14;100691.31;84703;1326;22672;-72
2022/06/24 06:45:36;;;;;;;;;;;;;;;41.22;16.65;100687.22;84714;1326;22667;-72
2022/06/24 06:47:39;;;;;;;;;;;;;;;41.43;16.64;100686.86;84722;1327;23288;-72
2022/06/24 06:49:42;;;;;;;;;;;;;;;41.43;16.85;100688.15;84696;1330;22971;-72
2022/06/24 06:51:46;;;;;;;;;;;;;;;41.52;16.56;100687.25;84710;1326;22584;-72
2022/06/24 06:53:49;;;;;;;;;;;;;;;41.69;16.22;100684.29;84747;1326;22882;-72
2022/06/24 06:55:52;;;;;;;;;;;;;;;41.68;17.19;100684.00;84729;1326;22612;-72
2022/06/24 06:57:55;;;;;;;;;;;;;;;41.59;17.14;100685.38;84703;1325;22742;-72
2022/06/24 06:59:59;;;;;;;;;;;;;;;41.58;16.80;100681.01;84737;1324;22719;-72
2022/06/24 07:02:03;;;;;;;;;;;;;;;41.60;16.81;100684.77;84719;1326;22648;-71
2022/06/24 07:04:06;;;;;;;;;;;;;;;41.60;16.61;100682.30;84715;1327;22590;-71
2022/06/24 07:06:09;;;;;;;;;;;;;;;41.81;16.23;100678.34;84727;1327;22617;-71
2022/06/24 07:08:13;;;;;;;;;;;;;;;41.79;16.98;100676.27;84727;1326;23238;-71
2022/06/24 07:10:16;;;;;;;;;;;;;;;41.79;16.62;100674.92;84715;1326;22616;-71
2022/06/24 07:12:20;;;;;;;;;;;;;;;41.87;15.77;100675.83;84722;1330;24176;-71
2022/06/24 07:14:23;;;;;;;;;;;;;;;41.74;15.75;100678.67;84700;1330;22526;-71
2022/06/24 07:16:27;;;;;;;;;;;;;;;41.87;15.70;100677.09;84714;1326;22845;-71
2022/06/24 07:18:30;;;;;;;;;;;;;;;41.61;15.62;100675.82;84681;1331;22616;-71
2022/06/24 07:20:33;;;;;;;;;;;;;;;41.49;16.01;100677.60;84694;1329;24231;-71
2022/06/24 07:22:37;;;;;;;;;;;;;;;41.64;15.55;100677.73;84725;1324;24195;-71
2022/06/24 07:24:40;;;;;;;;;;;;;;;41.67;15.46;100675.14;84713;1327;22850;-71
2022/06/24 07:26:43;;;;;;;;;;;;;;;41.77;15.43;100671.06;84630;1328;22552;-71
2022/06/24 07:28:47;;;;;;;;;;;;;;;41.97;16.30;100672.97;84703;1329;22529;-71
2022/06/24 07:30:50;;;;;;;;;;;;;;;42.13;15.97;100672.64;84705;1326;22623;-71
2022/06/24 07:32:53;;;;;;;;;;;;;;;42.35;15.72;100671.92;84727;1327;22688;-71
2022/06/24 07:34:57;;;;;;;;;;;;;;;42.53;14.71;100669.60;84765;1330;23298;-71
2022/06/24 07:37:00;;;;;;;;;;;;;;;42.74;14.93;100666.98;84773;1330;24273;-71
2022/06/24 07:39:04;;;;;;;;;;;;;;;42.72;14.66;100664.66;84779;1327;22530;-71
2022/06/24 07:41:09;;;;;;;;;;;;;;;42.48;14.97;100666.48;84756;1326;22670;-71
2022/06/24 07:43:13;;;;;;;;;;;;;;;42.37;14.79;100672.28;84755;1326;22540;-71
2022/06/24 07:45:16;;;;;;;;;;;;;;;42.15;15.16;100674.42;84778;1326;22656;-71
2022/06/24 07:47:19;;;;;;;;;;;;;;;42.20;15.38;100678.11;84778;1326;23938;-71
2022/06/24 07:49:23;;;;;;;;;;;;;;;42.17;15.08;100676.64;84766;1324;22623;-71
2022/06/24 07:51:26;;;;;;;;;;;;;;;42.13;15.66;100670.14;84753;1330;24260;-71
2022/06/24 07:53:30;;;;;;;;;;;;;;;42.24;15.30;100665.78;84759;1327;22581;-71
2022/06/24 07:57:54;;;;;;;;;;;;;;;42.54;15.17;100659.05;84763;1330;24233;-72
2022/06/24 07:59:58;;;;;;;;;;;;;;;42.61;15.09;100656.31;84777;1326;22590;-72
2022/06/24 08:02:04;;;;;;;;;;;;;;;42.63;15.12;100652.65;84766;1330;22703;-72
2022/06/24 08:04:08;;;;;;;;;;;;;;;42.56;14.61;100650.54;84763;1327;22823;-71
2022/06/24 08:06:11;;;;;;;;;;;;;;;42.46;15.05;100651.18;84778;1327;22582;-72
2022/06/24 08:08:14;;;;;;;;;;;;;;;42.52;15.02;100645.43;84771;1327;22584;-72
2022/06/24 08:10:18;;;;;;;;;;;;;;;42.64;14.85;100644.45;84753;1330;23814;-71
2022/06/24 08:12:21;;;;;;;;;;;;;;;42.56;14.70;100640.08;84759;1326;22613;-71
2022/06/24 08:14:25;;;;;;;;;;;;;;;42.65;14.90;100641.44;84745;1325;22530;-70
2022/06/24 08:16:28;;;;;;;;;;;;;;;42.85;14.81;100640.58;84765;1330;22606;-70
2022/06/24 08:18:32;;;;;;;;;;;;;;;42.89;14.85;100640.27;84764;1328;22576;-70
2022/06/24 08:20:35;;;;;;;;;;;;;;;42.75;14.20;100634.79;84747;1326;22812;-71
2022/06/24 08:22:38;;;;;;;;;;;;;;;42.62;14.44;100640.57;84749;1326;23493;-71
2022/06/24 08:24:42;;;;;;;;;;;;;;;42.45;14.44;100637.58;84740;1327;22552;-69
2022/06/24 08:26:45;;;;;;;;;;;;;;;42.46;14.82;100631.91;84756;1327;22668;-69
2022/06/24 08:28:48;;;;;;;;;;;;;;;42.57;14.98;100626.33;84741;1326;22662;-69
2022/06/24 08:30:51;;;;;;;;;;;;;;;42.60;15.18;100633.88;84771;1326;24097;-70
2022/06/24 08:32:55;;;;;;;;;;;;;;;42.52;14.60;100629.92;84763;1326;23805;-70
2022/06/24 08:34:58;;;;;;;;;;;;;;;42.54;14.73;100630.76;84738;1328;25439;-70
2022/06/24 08:37:02;;;;;;;;;;;;;;;42.59;14.26;100629.25;84794;1328;22642;-70
2022/06/24 08:39:06;;;;;;;;;;;;;;;42.68;14.18;100620.05;84764;1328;25277;-70
2022/06/24 08:41:10;;;;;;;;;;;;;;;42.75;14.19;100622.63;84775;1330;22561;-68
2022/06/24 08:43:13;;;;;;;;;;;;;;;42.55;13.99;100620.25;84749;1326;22592;-68
2022/06/24 08:45:17;;;;;;;;;;;;;;;42.41;14.29;100620.04;84727;1330;22748;-68
2022/06/24 08:47:20;;;;;;;;;;;;;;;42.43;13.85;100613.45;84723;1324;22566;-68
2022/06/24 08:49:23;;;;;;;;;;;;;;;42.43;13.68;100619.90;84786;1330;22596;-68
2022/06/24 08:51:27;;;;;;;;;;;;;;;42.43;13.45;100617.20;84789;1327;22575;-69
2022/06/24 08:53:30;;;;;;;;;;;;;;;42.29;13.53;100615.66;84791;1324;22604;-69
2022/06/24 08:55:35;;;;;;;;;;;;;;;42.27;13.92;100617.89;84757;1327;25411;-69
2022/06/24 08:57:38;;;;;;;;;;;;;;;42.29;13.76;100618.29;84812;1327;22571;-69
2022/06/24 08:59:42;;;;;;;;;;;;;;;42.20;13.19;100616.77;84770;1326;22777;-69
2022/06/24 09:01:47;;;;;;;;;;;;;;;42.08;13.19;100616.55;84802;1327;22656;-69
2022/06/24 09:03:50;;;;;;;;;;;;;;;41.87;13.71;100609.04;84690;1326;22593;-69
2022/06/24 09:05:53;;;;;;;;;;;;;;;41.77;14.19;100605.95;84760;1330;24238;-68
2022/06/24 09:07:58;;;;;;;;;;;;;;;41.73;14.58;100610.58;84779;1329;22949;-69
2022/06/24 09:10:04;;;;;;;;;;;;;;;41.60;14.23;100610.48;84738;1330;22677;-69
2022/06/24 09:12:09;;;;;;;;;;;;;;;41.10;14.68;100611.09;84778;1326;24392;-69
2022/06/24 09:14:12;;;;;;;;;;;;;;;40.62;15.27;100604.36;84787;1326;24256;-69
2022/06/24 09:16:17;;;;;;;;;;;;;;;40.28;15.53;100603.48;84736;1328;22848;-69
2022/06/24 09:18:21;;;;;;;;;;;;;;;39.84;16.28;100595.34;84800;1326;22575;-69
2022/06/24 09:20:25;;;;;;;;;;;;;;;39.47;16.24;100600.95;84759;1327;25497;-69
2022/06/24 09:22:29;;;;;;;;;;;;;;;39.04;16.51;100593.30;84729;1330;22576;-69
2022/06/24 09:24:44;;;;;;;;;;;;;;;38.70;17.13;100591.69;84784;1330;22611;-69
2022/06/24 09:26:48;;;;;;;;;;;;;;;38.44;17.94;100582.59;84775;1329;22586;-69
2022/06/24 09:28:53;;;;;;;;;;;;;;;38.19;17.73;100585.45;84749;1326;24266;-69
2022/06/24 09:31:03;;;;;;;;;;;;;;;37.85;18.38;100592.92;84767;1326;22527;-69
2022/06/24 09:33:07;;;;;;;;;;;;;;;37.59;19.27;100592.08;84785;1326;22598;-69
2022/06/24 09:35:10;;;;;;;;;;;;;;;37.37;19.11;100595.91;84776;1324;22564;-69
2022/06/24 09:37:17;;;;;;;;;;;;;;;36.88;18.36;100590.89;84761;1327;23779;-69
2022/06/24 09:39:22;;;;;;;;;;;;;;;36.43;19.24;100581.52;84782;1325;23889;-69
2022/06/24 09:41:25;;;;;;;;;;;;;;;36.27;19.87;100581.74;84771;1330;25284;-69
2022/06/24 09:43:30;;;;;;;;;;;;;;;36.07;19.80;100574.98;84751;1326;22577;-69
2022/06/24 09:45:48;;;;;;;;;;;;;;;35.96;20.18;100574.87;84785;1326;22738;-70
2022/06/24 09:47:52;;;;;;;;;;;;;;;35.83;19.77;100575.73;84772;1322;22593;-69
2022/06/24 09:49:59;;;;;;;;;;;;;;;35.64;20.02;100572.98;84802;1326;23920;-67
2022/06/24 09:52:02;;;;;;;;;;;;;;;35.50;20.70;100570.89;84783;1324;22590;-68
2022/06/24 09:54:05;;;;;;;;;;;;;;;35.43;21.47;100566.95;84763;1326;22573;-69
2022/06/24 09:56:10;;;;;;;;;;;;;;;35.30;20.77;100564.29;84766;1326;22612;-69
2022/06/24 09:58:14;;;;;;;;;;;;;;;35.11;20.69;100564.86;84769;1322;22573;-68
2022/06/24 10:02:40;;;;;;;;;;;;;;;34.79;21.75;100559.46;84773;1330;22584;-68
2022/06/24 10:04:45;;;;;;;;;;;;;;;34.79;21.95;100557.73;84757;1330;22605;-68
2022/06/24 10:06:49;;;;;;;;;;;;;;;34.78;22.05;100555.14;84771;1327;24487;-68
2022/06/24 10:08:52;;;;;;;;;;;;;;;34.76;22.17;100553.13;84708;1326;25379;-68
2022/06/24 10:10:56;;;;;;;;;;;;;;;34.71;22.34;100555.73;84769;1322;22793;-69
2022/06/24 10:13:03;;;;;;;;;;;;;;;34.58;21.65;100549.27;84781;1326;25272;-69
2022/06/24 10:15:08;;;;;;;;;;;;;;;34.40;21.97;100550.98;84786;1324;22593;-68
2022/06/24 10:17:11;;;;;;;;;;;;;;;34.32;21.89;100542.32;84782;1322;22606;-68
2022/06/24 10:19:14;;;;;;;;;;;;;;;34.22;22.10;100541.88;84714;1326;22577;-68
2022/06/24 10:21:20;;;;;;;;;;;;;;;34.10;22.39;100538.33;84788;1330;22539;-69
2022/06/24 10:23:39;;;;;;;;;;;;;;;34.00;22.66;100536.17;84740;1326;22562;-68
2022/06/24 10:25:53;;;;;;;;;;;;;;;33.95;23.11;100537.39;84828;1327;23258;-68
2022/06/24 10:28:06;;;;;;;;;;;;;;;33.92;22.97;100529.45;84763;1326;22949;-68
2022/06/24 10:30:10;;;;;;;;;;;;;;;33.92;23.48;100531.63;84797;1328;22575;-68
2022/06/24 10:32:13;;;;;;;;;;;;;;;33.88;23.23;100530.88;84834;1330;22567;-68
2022/06/24 10:34:40;;;;;;;;;;;;;;;33.82;23.59;100531.95;84775;1326;22651;-69
2022/06/24 10:36:43;;;;;;;;;;;;;;;33.76;23.97;100521.37;84691;1330;22610;-69
2022/06/24 10:38:46;;;;;;;;;;;;;;;33.77;24.31;100526.55;84777;1326;22732;-69
2022/06/24 10:40:50;;;;;;;;;;;;;;;33.72;24.03;100524.83;84702;1327;24477;-71
2022/06/24 10:43:05;;;;;;;;;;;;;;;33.68;23.43;100522.33;84776;1326;23967;-69
2022/06/24 10:45:10;;;;;;;;;;;;;;;33.57;23.47;100528.52;84797;1327;25273;-69
2022/06/24 10:47:38;;;;;;;;;;;;;;;33.48;23.61;100524.81;84801;1327;22672;-69
2022/06/24 10:50:08;;;;;;;;;;;;;;;33.33;23.69;100519.10;84730;1326;23797;-67
2022/06/24 10:52:30;;;;;;;;;;;;;;;33.15;23.45;100518.32;84770;1327;25333;-68